Tiempo atmosférico en la estación meteorológica de Tejeda, Cruz de Tejeda, Las Palmas (1514 m.)



Fecha
DESCASC
Temp. máxima en grados centígrados (hora)
DESCASC
Temp. mínima en grados centígrados (hora)
DESCASC
Temp. media en grados centígrados
DESCASC
Racha de viento máxima en m/sg (hora)
DESCASC
Velocidad máxima media en intervalos de 10 minutos(hora)
DESCASC
Precipitaciones diarias en mm
DESCASC
Precipitaciones de 00:00 a 06:00 en mm
DESCASC
Precipitaciones de 06:00 a 12:00 en mm
DESCASC
Precipitaciones de 12:00 a 18:00 en mm
DESCASC
Precipitaciones de 18:00 a 24:00 en mm
DESCASC
23-06-2019 21.9 (15:40) 13.8 (22:50) 17.8 6.67 (04:50) 3.06 (00:10) 0 0 0 0 0
22-06-2019 23.7 (17:00) 12.4 (00:00) 18.1 8.89 (00:40) 5 (00:50) 0 0 0 0 0
21-06-2019 18.3 (18:40) 9.1 (01:40) 13.7 12.22 (02:30) 6.39 (03:30) 0 0 0 0 0
20-06-2019 20.4 (15:00) 9.2 (00:00) 14.8 11.11 (22:20) 6.11 (23:30) 0 0 0 0 0
19-06-2019 18.8 (18:20) 12.2 (00:00) 15.5 7.5 (14:10) 4.17 (14:00) 0 0 0 0 0
18-06-2019 20 (16:00) 12.6 (00:00) 16.3 7.22 (18:00) 4.17 (17:40) 0 0 0 0 0
17-06-2019 21.6 (17:30) 13.3 (00:00) 17.5 4.17 (11:20) 2.5 (10:00) 0 0 0 0 0
16-06-2019 19.9 (12:10) 9 (00:00) 14.4 5.56 (14:50) 3.06 (14:20) 0 0 0 0 0
15-06-2019 16.9 (14:30) 5.3 (00:00) 11.1 7.5 (16:40) 4.44 (17:30) 0 0 0 0 0
14-06-2019 13.5 (11:50) 5.1 (00:00) 9.3 8.33 (01:00) 5 (23:00) 0 0 0 0 0
13-06-2019 16.2 (15:10) 5.7 (00:00) 11 11.11 (03:10) 4.17 (23:20) 0 0 0 0 0
12-06-2019 17.5 (17:00) 7.8 (00:00) 12.7 14.17 (06:30) 6.67 (09:10) 2.8 1 1.8 0 0
11-06-2019 11.3 (13:20) 7.5 (00:00) 9.4 17.22 (20:40) 7.78 (20:30) 1.8 0 1.2 0.2 0.4
10-06-2019 15.3 (14:00) 6.9 (00:00) 11.1 14.17 (23:59) 8.61 (05:00) 0 0 0 0 0
09-06-2019 16 (15:50) 5.8 (00:00) 10.9 12.78 (20:50) 9.44 (23:40) 0.6 0.2 0.4 0 0
08-06-2019 17.1 (18:10) 6.7 (00:00) 11.9 8.61 (01:50) 5.28 (08:20) 1.6 0.8 0.8 0 0
07-06-2019 13.9 (14:50) 5.9 (00:00) 9.9 13.89 (08:10) 7.5 (04:20) 0 0 0 0 0
06-06-2019 11.9 (18:30) 6.1 (00:00) 9 13.89 (23:40) 8.33 (08:30) 2.4 1.2 1.2 0 0
05-06-2019 15.2 (02:20) 8.4 (00:00) 11.8 11.94 (23:20) 6.39 (06:30) 1.4 0 0.6 0 0.8
04-06-2019 22.9 (16:40) 14.3 (00:00) 18.6 10.83 (00:50) 8.06 (00:50) 0 0 0 0 0
03-06-2019 24.5 (14:50) 17.4 (00:00) 20.9 14.17 (00:20) 9.44 (02:50) 0 0 0 0 0
02-06-2019 25.3 (15:40) 16.2 (00:00) 20.8 12.78 (22:50) 6.94 (01:30) 0 0 0 0 0
01-06-2019 27.9 (16:10) 19.6 (00:00) 23.8 10.56 (05:40) 5.83 (05:10) 0 0 0 0 0
31-05-2019 27.5 (19:20) 18.1 (00:00) 22.8 8.06 (04:50) 5.28 (23:30) 0 0 0 0 0
30-05-2019 25.7 (17:10) 16.5 (00:00) 21.1 7.78 (04:50) 5.83 (01:10) 0 0 0 0 0
29-05-2019 24.7 (17:40) 14.3 (00:00) 19.5 8.61 (04:50) 5.83 (02:30) 0 0 0 0 0
28-05-2019 20.9 (15:20) 13.9 (00:00) 17.4 12.22 (06:20) 6.94 (00:50) 0 0 0 0 0
27-05-2019 18.1 (15:10) 11.5 (00:00) 14.8 15.83 (00:50) 9.44 (05:40) 0 0 0 0 0
26-05-2019 19 (16:00) 11.2 (00:00) 15.1 13.06 (23:40) 9.44 (23:10) 0 0 0 0 0

Gráficas

Temp. máximas Temp. mínimas Temp. medias Precipitaciones Rachas de viento máximas Velocidades máximas media en intervalos de 10 minutos

Datos horarios

Fecha y hora oficial Temperatura (ºC) Velocidad del viento (km/h) Dirección del viento Racha (km/h) Dirección de racha Precipitación (mm) Presión (hPa) Tendencia (hPa) Humedad (%)
2019-06-24 23:00:00 17.5 4 Oeste 9 Oeste 0 -- -- 49
2019-06-24 22:00:00 16.5 3 Noroeste 6 Oeste 0 -- -- 54
2019-06-24 21:00:00 17.3 2 Oeste 12 Oeste 0 -- -- 79
2019-06-24 20:00:00 19.5 8 Oeste 19 Oeste 0 -- -- 71
2019-06-24 19:00:00 20.2 10 Oeste 21 Oeste 0 -- -- 69
2019-06-24 18:00:00 21 8 Oeste 20 Oeste 0 -- -- 67
2019-06-24 17:00:00 21.3 4 Sudeste 18 Sudoeste 0 -- -- 69
2019-06-24 16:00:00 21.9 5 Sudeste 15 Oeste 0 -- -- 67
2019-06-24 15:00:00 22 4 Sudeste 10 Sur 0 -- -- 65
2019-06-24 14:00:00 21.3 4 Sur 12 Sudoeste 0 -- -- 65
2019-06-24 13:00:00 20.1 8 Oeste 15 Oeste 0 -- -- 63
2019-06-24 12:00:00 18.7 7 Oeste 13 Oeste 0 -- -- 61
2019-06-24 11:00:00 19 2 Oeste 10 Oeste 0 -- -- 68
2019-06-24 10:00:00 18.8 4 Sudoeste 8 Sudoeste 0 -- -- 52
2019-06-24 09:00:00 16.3 5 Oeste 11 Oeste 0 -- -- 61
2019-06-24 08:00:00 16.2 5 Oeste 16 Oeste 0 -- -- 62
2019-06-24 07:00:00 15 6 Oeste 11 Oeste 0 -- -- 57
2019-06-24 06:00:00 15 6 Oeste 11 Oeste 0 -- -- 55
2019-06-24 05:00:00 14.9 6 Oeste 13 Oeste 0 -- -- 56
2019-06-24 04:00:00 15.3 6 Oeste 10 Oeste 0 -- -- 50
2019-06-24 03:00:00 15.1 4 Oeste 9 Oeste 0 -- -- 57
2019-06-24 02:00:00 15.3 4 Oeste 7 Noroeste 0 -- -- 52
2019-06-24 01:00:00 13.9 3 Nordeste 5 Nordeste 0 -- -- 75
2019-06-24 00:00:00 14 5 Nordeste 9 Nordeste 0 -- -- 73
2019-06-23 23:00:00 13.8 5 Nordeste 9 Este 0 -- -- 80
2019-06-23 22:00:00 15.4 0 Calma 5 Nordeste 0 -- -- 59
2019-06-23 21:00:00 15.9 0 Calma 15 Oeste 0 -- -- 74
2019-06-23 20:00:00 17.8 8 Oeste 19 Oeste 0 -- -- 71
2019-06-23 19:00:00 18.9 7 Oeste 14 Oeste 0 -- -- 69
2019-06-23 18:00:00 19.8 4 Sudeste 10 Sudeste 0 -- -- 67
2019-06-23 17:00:00 20.5 3 Este 12 Sudeste 0 -- -- 66
2019-06-23 16:00:00 21.5 3 Este 14 Sudoeste 0 -- -- 64
2019-06-23 15:00:00 20.6 4 Este 15 Sudeste 0 -- -- 67
2019-06-23 14:00:00 21.1 4 Sudeste 15 Sudeste 0 -- -- 62
2019-06-23 13:00:00 20.8 6 Sudeste 14 Este 0 -- -- 63
2019-06-23 12:00:00 21 3 Sudeste 10 Sudeste 0 -- -- 55
2019-06-23 11:00:00 20.4 3 Oeste 9 Sudeste 0 -- -- 22
2019-06-23 10:00:00 20.6 3 Este 9 Este 0 -- -- 24
2019-06-23 09:00:00 17.6 0 Calma 7 Nordeste 0 -- -- 16
2019-06-23 08:00:00 16.6 4 Este 15 Noroeste 0 -- -- 14
2019-06-23 07:00:00 15.4 5 Nordeste 20 Noroeste 0 -- -- 16
2019-06-23 06:00:00 16.2 3 Sudoeste 22 Norte 0 -- -- 16
2019-06-23 05:00:00 17.5 8 Norte 24 Norte 0 -- -- 6
2019-06-23 04:00:00 17.2 4 Norte 17 Norte 0 -- -- 9
2019-06-23 03:00:00 16 4 Norte 14 Nordeste 0 -- -- 24
2019-06-23 02:00:00 15.2 3 Noroeste 22 Nordeste 0 -- -- 50
2019-06-23 01:00:00 15.9 10 Nordeste 23 Nordeste 0 -- -- 49
2019-06-23 00:00:00 15.4 7 Nordeste 18 Nordeste 0 -- -- 46
2019-06-22 23:00:00 15.3 5 Este 18 Nordeste 0 -- -- 32
2019-06-22 22:00:00 15.5 9 Nordeste 22 Nordeste 0 -- -- 24
2019-06-22 21:00:00 15.9 6 Este 16 Nordeste 0 -- -- 33
2019-06-22 20:00:00 18.6 4 Nordeste 19 Nordeste 0 -- -- 27
2019-06-22 19:00:00 19.6 8 Nordeste 19 Nordeste 0 -- -- 25
2019-06-22 18:00:00 20.1 4 Este 12 Este 0 -- -- 44
2019-06-22 17:00:00 23.7 4 Sudeste 12 Este 0 -- -- 37
2019-06-22 16:00:00 21.9 5 Sudeste 14 Este 0 -- -- 40
2019-06-22 15:00:00 21.7 5 Este 14 Este 0 -- -- 36
2019-06-22 14:00:00 22 5 Sudeste 15 Sudeste 0 -- -- 39
2019-06-22 13:00:00 21 5 Sudeste 18 Sudeste 0 -- -- 31
2019-06-22 12:00:00 19.2 8 Sudeste 18 Este 0 -- -- 36
2019-06-22 11:00:00 18.4 9 Sudeste 27 Este 0 -- -- 30
2019-06-22 10:00:00 17.5 10 Este 31 Sudeste 0 -- -- 30
2019-06-22 09:00:00 16.1 10 Este 26 Este 0 -- -- 28
2019-06-22 08:00:00 14.5 8 Este 29 Este 0 -- -- 31
2019-06-22 07:00:00 13.5 9 Este 28 Nordeste 0 -- -- 31
2019-06-22 06:00:00 13 10 Este 28 Nordeste 0 -- -- 33
2019-06-22 05:00:00 13 8 Este 23 Nordeste 0 -- -- 33
2019-06-22 04:00:00 13.4 12 Nordeste 26 Norte 0 -- -- 31
2019-06-22 03:00:00 13.8 12 Norte 24 Nordeste 0 -- -- 32
2019-06-22 02:00:00 13.9 14 Norte 31 Noroeste 0 -- -- 37
2019-06-22 01:00:00 13.2 17 Norte 32 Nordeste 0 -- -- 36
2019-06-22 00:00:00 12.4 8 Nordeste 27 Norte 0 -- -- 44
2019-06-21 23:00:00 13.1 8 Este 25 Nordeste 0 -- -- 44
2019-06-21 22:00:00 13.5 8 Nordeste 24 Norte 0 -- -- 41
2019-06-21 21:00:00 13.2 10 Nordeste 26 Nordeste 0 -- -- 45
2019-06-21 20:00:00 15.3 6 Este 23 Nordeste 0 -- -- 45
2019-06-21 19:00:00 16.4 8 Nordeste 19 Norte 0 -- -- 42
2019-06-21 18:00:00 16.4 9 Nordeste 24 Nordeste 0 -- -- 46
2019-06-21 17:00:00 17 7 Este 22 Nordeste 0 -- -- 59
2019-06-21 16:00:00 17 6 Este 22 Sudeste 0 -- -- 58
2019-06-21 15:00:00 16.7 7 Este 20 Este 0 -- -- 62
2019-06-21 14:00:00 16.4 8 Este 21 Sudeste 0 -- -- 56
2019-06-21 13:00:00 15.5 7 Este 22 Este 0 -- -- 58
2019-06-21 12:00:00 14.2 6 Este 30 Sudeste 0 -- -- 73
2019-06-21 11:00:00 11.4 10 Este 38 Nordeste 0 -- -- 90
2019-06-21 10:00:00 12.3 11 Este 35 Nordeste 0 -- -- 78
2019-06-21 09:00:00 10 16 Nordeste 37 Nordeste 0 -- -- 86
2019-06-21 08:00:00 11.4 23 Nordeste 40 Norte 0 -- -- 52
2019-06-21 07:00:00 11.1 15 Norte 32 Norte 0 -- -- 51
2019-06-21 06:00:00 10.6 17 Norte 35 Nordeste 0 -- -- 65
2019-06-21 05:00:00 10.9 21 Nordeste 35 Norte 0 -- -- 62
2019-06-21 04:00:00 9.8 18 Norte 44 Nordeste 0 -- -- 69
2019-06-21 03:00:00 9.4 12 Este 44 Nordeste 0 -- -- 84
2019-06-21 02:00:00 9.4 17 Nordeste 39 Nordeste 0 -- -- 87
2019-06-21 01:00:00 9.7 15 Nordeste 37 Nordeste 0 -- -- 81
2019-06-21 00:00:00 9.5 21 Nordeste 40 Nordeste 0 -- -- 85
2019-06-20 23:00:00 9.9 15 Nordeste 40 Este 0 -- -- 90
2019-06-20 22:00:00 9.9 13 Este 34 Nordeste 0 -- -- 96
2019-06-20 21:00:00 10.5 8 Este 34 Nordeste 0 -- -- 95
2019-06-20 20:00:00 12 11 Este 28 Nordeste 0 -- -- 84
2019-06-20 19:00:00 14.5 9 Este 20 Nordeste 0 -- -- 72
2019-06-20 18:00:00 19.1 4 Sudeste 10 Sudeste 0 -- -- 56
2019-06-20 17:00:00 18.6 4 Sudeste 11 Sudeste 0 -- -- 58
2019-06-20 16:00:00 19.3 4 Sudeste 13 Este 0 -- -- 57
2019-06-20 15:00:00 20.4 4 Sudeste 14 Sur 0 -- -- 52
2019-06-20 14:00:00 18.4 4 Este 12 Este 0 -- -- 57
2019-06-20 13:00:00 19.2 4 Este 12 Sudeste 0 -- -- 56
2019-06-20 12:00:00 17.8 4 Sudeste 14 Este 0 -- -- 62
2019-06-20 11:00:00 16.3 5 Sudeste 17 Sudeste 0 -- -- 65
2019-06-20 10:00:00 14.4 6 Este 20 Sudeste 0 -- -- 72
2019-06-20 09:00:00 11.5 9 Este 24 Nordeste 0 -- -- 82
2019-06-20 08:00:00 10.5 5 Sudeste 19 Este 0 -- -- 84
2019-06-20 07:00:00 9.9 3 Este 11 Sudeste 0 -- -- 61
2019-06-20 06:00:00 10 4 Sudeste 10 Este 0 -- -- 56
2019-06-20 05:00:00 11.2 3 Este 10 Sudeste 0 -- -- 44
2019-06-20 04:00:00 13.6 3 Este 13 Nordeste 0 -- -- 28
2019-06-20 03:00:00 14.1 0 Calma 12 Nordeste 0 -- -- 24
2019-06-20 02:00:00 13.6 4 Nordeste 16 Nordeste 0 -- -- 26
2019-06-20 01:00:00 13.8 7 Norte 15 Norte 0 -- -- 24
2019-06-20 00:00:00 14.5 2 Norte 11 Nordeste 0 -- -- 26
2019-06-19 23:00:00 13.5 4 Sudoeste 10 Oeste 0 -- -- 57
2019-06-19 22:00:00 13.5 4 Oeste 12 Oeste 0 -- -- 62
2019-06-19 21:00:00 13.4 9 Oeste 19 Oeste 0 -- -- 81
2019-06-19 20:00:00 16.5 8 Oeste 19 Oeste 0 -- -- 67
2019-06-19 19:00:00 18.1 8 Oeste 17 Oeste 0 -- -- 59
2019-06-19 18:00:00 18.6 6 Oeste 23 Oeste 0 -- -- 57
2019-06-19 17:00:00 17.7 14 Oeste 24 Oeste 0 -- -- 63
2019-06-19 16:00:00 18.1 10 Oeste 24 Oeste 0 -- -- 63
2019-06-19 15:00:00 17.7 10 Oeste 27 Oeste 0 -- -- 66
2019-06-19 14:00:00 16.6 15 Oeste 26 Oeste 0 -- -- 70
2019-06-19 13:00:00 17.1 12 Oeste 22 Oeste 0 -- -- 65
2019-06-19 12:00:00 16.3 10 Oeste 21 Oeste 0 -- -- 66
2019-06-19 11:00:00 16.1 6 Oeste 12 Oeste 0 -- -- 61
2019-06-19 10:00:00 16.6 4 Este 9 Este 0 -- -- 64
2019-06-19 09:00:00 15.4 3 Sudoeste 6 Oeste 0 -- -- 39
2019-06-19 08:00:00 15.4 4 Oeste 9 Noroeste 0 -- -- 23
2019-06-19 07:00:00 13.2 3 Oeste 6 Noroeste 0 -- -- 30
2019-06-19 06:00:00 12.8 5 Oeste 9 Oeste 0 -- -- 50
2019-06-19 05:00:00 12.3 5 Oeste 15 Oeste 0 -- -- 45
2019-06-19 04:00:00 14.7 8 Oeste 15 Oeste 0 -- -- 27
2019-06-19 03:00:00 15.2 7 Oeste 15 Oeste 0 -- -- 28
2019-06-19 02:00:00 15.3 7 Oeste 18 Oeste 0 -- -- 31
2019-06-19 01:00:00 15.9 7 Oeste 16 Oeste 0 -- -- 29
2019-06-19 00:00:00 15.3 6 Oeste 12 Oeste 0 -- -- 38
2019-06-18 23:00:00 13.3 4 Oeste 13 Oeste 0 -- -- 67
2019-06-18 22:00:00 13.1 7 Oeste 13 Noroeste 0 -- -- 95
2019-06-18 21:00:00 13.6 10 Oeste 17 Oeste 0 -- -- 91
2019-06-18 20:00:00 15.3 9 Oeste 17 Oeste 0 -- -- 86
2019-06-18 19:00:00 16.2 14 Oeste 23 Oeste 0 -- -- 87
2019-06-18 18:00:00 17.7 14 Oeste 26 Oeste 0 -- -- 77
2019-06-18 17:00:00 -- -- -- -- -- -- -- -- --
2019-06-18 16:00:00 20 6 Sudeste 17 Oeste 0 -- -- 67
2019-06-18 15:00:00 19.6 9 Oeste 23 Oeste 0 -- -- 69
2019-06-18 14:00:00 18 12 Oeste 23 Oeste 0 -- -- 71
2019-06-18 13:00:00 19.5 4 Sudeste 15 Noroeste 0 -- -- 66
2019-06-18 12:00:00 18.4 5 Sudoeste 12 Oeste 0 -- -- 61
2019-06-18 11:00:00 17.3 5 Oeste 9 Oeste 0 -- -- 56
2019-06-18 10:00:00 17.5 4 Oeste 11 Oeste 0 -- -- 48
2019-06-18 09:00:00 15.6 6 Oeste 9 Oeste 0 -- -- 52
2019-06-18 08:00:00 15.6 5 Oeste 13 Oeste 0 -- -- 51
2019-06-18 07:00:00 14.2 8 Oeste 14 Noroeste 0 -- -- 61
2019-06-18 06:00:00 13.7 7 Oeste 14 Oeste 0 -- -- 68
2019-06-18 05:00:00 14.4 5 Oeste 10 Oeste 0 -- -- 65
2019-06-18 04:00:00 13.7 5 Oeste 11 Oeste 0 -- -- 65
2019-06-18 03:00:00 16 5 Oeste 12 Oeste 0 -- -- 46
2019-06-18 02:00:00 16.2 4 Oeste 9 Oeste 0 -- -- 46
2019-06-18 01:00:00 14.8 0 Calma 4 Oeste 0 -- -- 51
2019-06-18 00:00:00 14 3 Nordeste 8 Nordeste 0 -- -- 55
2019-06-17 23:00:00 14.9 6 Nordeste 8 Nordeste 0 -- -- 52
2019-06-17 22:00:00 16.4 3 Sudeste 13 Norte 0 -- -- 47
2019-06-17 21:00:00 16.7 5 Oeste 9 Oeste 0 -- -- 55
2019-06-17 20:00:00 18.8 4 Oeste 13 Oeste 0 -- -- 65
2019-06-17 19:00:00 20.6 3 Este 9 Oeste 0 -- -- 54
2019-06-17 18:00:00 19 4 Este 9 Este 0 -- -- 58
2019-06-17 17:00:00 19 4 Este 13 Este 0 -- -- 59
2019-06-17 16:00:00 20.8 4 Sudeste 13 Este 0 -- -- 56
2019-06-17 15:00:00 20.7 4 Sudeste 12 Este 0 -- -- 57
2019-06-17 14:00:00 20.5 4 Norte 14 Noroeste 0 -- -- 50
2019-06-17 13:00:00 19.2 7 Oeste 14 Oeste 0 -- -- 42
2019-06-17 12:00:00 18.9 8 Oeste 15 Oeste 0 -- -- 37
2019-06-17 11:00:00 18.6 6 Oeste 13 Oeste 0 -- -- 37
2019-06-17 10:00:00 17.6 9 Oeste 11 Oeste 0 -- -- 42
2019-06-17 09:00:00 16.7 5 Oeste 9 Oeste 0 -- -- 44
2019-06-17 08:00:00 15.9 4 Oeste 10 Oeste 0 -- -- 46
2019-06-17 07:00:00 13.3 0 Calma 6 Sudeste 0 -- -- 55
2019-06-17 06:00:00 14.3 5 Noroeste 9 Noroeste 0 -- -- 52
2019-06-17 05:00:00 13.9 2 Noroeste 5 Sudeste 0 -- -- 54
2019-06-17 04:00:00 14.4 0 Calma 4 Oeste 0 -- -- 51
2019-06-17 03:00:00 14.1 0 Calma 9 Noroeste 0 -- -- 52
2019-06-17 02:00:00 15.4 5 Noroeste 9 Noroeste 0 -- -- 53
2019-06-17 01:00:00 15.4 0 Calma 11 Oeste 0 -- -- 49
2019-06-17 00:00:00 15.1 0 Calma 10 Sudeste 0 -- -- 50
2019-06-16 23:00:00 16.3 2 Sur 10 Nordeste 0 -- -- 46
2019-06-16 22:00:00 16.2 3 Oeste 7 Noroeste 0 -- -- 46
2019-06-16 21:00:00 16.3 0 Calma 8 Oeste 0 -- -- 50
2019-06-16 20:00:00 17.4 5 Oeste 13 Oeste 0 -- -- 69
2019-06-16 19:00:00 18.7 6 Oeste 15 Oeste 0 -- -- 64
2019-06-16 18:00:00 19.3 8 Oeste 18 Oeste 0 -- -- 59
2019-06-16 17:00:00 19.1 10 Oeste 20 Oeste 0 -- -- 61
2019-06-16 16:00:00 18.3 10 Oeste 19 Oeste 0 -- -- 64
2019-06-16 15:00:00 17.3 10 Oeste 20 Oeste 0 -- -- 65
2019-06-16 14:00:00 17.3 9 Oeste 19 Oeste 0 -- -- 58
2019-06-16 13:00:00 17.9 8 Oeste 15 Oeste 0 -- -- 48
2019-06-16 12:00:00 19 3 Oeste 10 Noroeste 0 -- -- 42
2019-06-16 11:00:00 18.3 6 Oeste 10 Oeste 0 -- -- 29
2019-06-16 10:00:00 16 4 Oeste 10 Oeste 0 -- -- 16
2019-06-16 09:00:00 15.3 4 Oeste 9 Oeste 0 -- -- 15
2019-06-16 08:00:00 13.9 3 Oeste 6 Noroeste 0 -- -- 19
2019-06-16 07:00:00 14.2 4 Noroeste 8 Oeste 0 -- -- 16
2019-06-16 06:00:00 13.4 5 Oeste 9 Noroeste 0 -- -- 17
2019-06-16 05:00:00 12.9 4 Oeste 6 Noroeste 0 -- -- 23
2019-06-16 04:00:00 11 0 Calma 6 Nordeste 0 -- -- 25
2019-06-16 03:00:00 11.9 3 Oeste 8 Oeste 0 -- -- 29
2019-06-16 02:00:00 12.8 6 Oeste 8 Oeste 0 -- -- 26
2019-06-16 01:00:00 9 6 Oeste 9 Oeste 0 -- -- 88
2019-06-16 00:00:00 12.7 3 Nordeste 5 Nordeste 0 -- -- 26
2019-06-15 23:00:00 11.3 3 Nordeste 9 Nordeste 0 -- -- 56
2019-06-15 22:00:00 9.9 3 Nordeste 16 Oeste 0 -- -- 74
2019-06-15 21:00:00 10.2 5 Oeste 15 Oeste 0 -- -- 93
2019-06-15 20:00:00 11.8 10 Oeste 18 Oeste 0 -- -- 87
2019-06-15 19:00:00 14 10 Oeste 24 Oeste 0 -- -- 77
2019-06-15 18:00:00 15 13 Oeste 26 Oeste 0 -- -- 74
2019-06-15 17:00:00 14.5 13 Oeste 27 Oeste 0 -- -- 76
2019-06-15 16:00:00 15.8 11 Oeste 23 Oeste 0 -- -- 69
2019-06-15 15:00:00 15.3 14 Oeste 25 Oeste 0 -- -- 68
2019-06-15 14:00:00 16.4 4 Sudeste 19 Oeste 0 -- -- 65
2019-06-15 13:00:00 16.4 4 Sudeste 13 Noroeste 0 -- -- 63
2019-06-15 12:00:00 15.8 5 Sudeste 14 Oeste 0 -- -- 64
2019-06-15 11:00:00 13.9 3 Sudeste 13 Este 0 -- -- 70
2019-06-15 10:00:00 11.6 3 Este 9 Este 0 -- -- 79
2019-06-15 09:00:00 8.3 3 Oeste 15 Oeste 0 -- -- 93
2019-06-15 08:00:00 6.7 0 Calma 15 Nordeste 0 -- -- 95
2019-06-15 07:00:00 6.3 10 Nordeste 17 Este 0 -- -- 99
2019-06-15 06:00:00 6.4 7 Este 21 Este 0 -- -- 99
2019-06-15 05:00:00 5.3 12 Nordeste 20 Este 0 -- -- 96
2019-06-15 04:00:00 6.3 3 Este 14 Nordeste 0 -- -- 86
2019-06-15 03:00:00 5.6 2 Nordeste 14 Nordeste 0 -- -- 98
2019-06-15 02:00:00 5.7 9 Nordeste 17 Nordeste 0 -- -- 98
2019-06-15 01:00:00 6.1 6 Este 22 Nordeste 0 -- -- 98
2019-06-15 00:00:00 6.6 17 Nordeste 24 Nordeste 0 -- -- 97
2019-06-14 23:00:00 6.8 18 Nordeste 27 Nordeste 0 -- -- 98
2019-06-14 22:00:00 7 4 Este 15 Nordeste 0 -- -- 96
2019-06-14 21:00:00 7.9 4 Este 12 Sudeste 0 -- -- 96
2019-06-14 20:00:00 9.5 3 Este 9 Sudeste 0 -- -- 89
2019-06-14 19:00:00 10.7 3 Este 8 Este 0 -- -- 83
2019-06-14 18:00:00 11.3 3 Este 8 Sudeste 0 -- -- 85
2019-06-14 17:00:00 9.3 3 Este 10 Este 0 -- -- 92
2019-06-14 16:00:00 12.1 3 Este 17 Sudeste 0 -- -- 85
2019-06-14 15:00:00 12.2 5 Este 15 Sudeste 0 -- -- 81
2019-06-14 14:00:00 12 4 Sudeste 13 Nordeste 0 -- -- 81
2019-06-14 13:00:00 10.2 4 Este 12 Este 0 -- -- 89
2019-06-14 12:00:00 13.4 6 Sudeste 14 Este 0 -- -- 71
2019-06-14 11:00:00 13.1 4 Este 15 Este 0 -- -- 70
2019-06-14 10:00:00 9.5 5 Este 18 Este 0 -- -- 81
2019-06-14 09:00:00 6.6 3 Nordeste 24 Nordeste 0 -- -- 95
2019-06-14 08:00:00 6.4 5 Nordeste 18 Nordeste 0 -- -- 95
2019-06-14 07:00:00 5.6 6 Nordeste 13 Nordeste 0 -- -- 97
2019-06-14 06:00:00 5.7 2 Nordeste 17 Nordeste 0 -- -- 97
2019-06-14 05:00:00 5.8 8 Este 21 Norte 0 -- -- 95
2019-06-14 04:00:00 6.2 9 Nordeste 23 Nordeste 0 -- -- 94
2019-06-14 03:00:00 5.6 2 Oeste 9 Nordeste 0 -- -- 89
2019-06-14 02:00:00 6.4 6 Este 22 Nordeste 0 -- -- 97
2019-06-14 01:00:00 6.7 11 Este 30 Nordeste 0 -- -- 98
2019-06-14 00:00:00 6.8 9 Este 32 Sudeste 0 -- -- 95
2019-06-13 23:00:00 6.7 7 Este 22 Este 0 -- -- 90
2019-06-13 22:00:00 7.8 9 Norte 19 Noroeste 0 -- -- 84
2019-06-13 21:00:00 8.5 6 Norte 17 Nordeste 0 -- -- 82
2019-06-13 20:00:00 13.8 4 Sudeste 9 Sudeste 0 -- -- 68
2019-06-13 19:00:00 13.7 3 Sudeste 18 Oeste 0 -- -- 69
2019-06-13 18:00:00 14.6 4 Este 18 Oeste 0 -- -- 66
2019-06-13 17:00:00 15.2 4 Este 15 Oeste 0 -- -- 63
2019-06-13 16:00:00 15.4 7 Sudeste 16 Sudeste 0 -- -- 63
2019-06-13 15:00:00 15.9 4 Sudeste 20 Sudoeste 0 -- -- 61
2019-06-13 14:00:00 14.6 6 Sur 22 Noroeste 0 -- -- 61
2019-06-13 13:00:00 14.6 4 Nordeste 18 Norte 0 -- -- 64
2019-06-13 12:00:00 9.5 7 Noroeste 17 Noroeste 0 -- -- 94
2019-06-13 11:00:00 8.1 6 Este 17 Este 0 -- -- 98
2019-06-13 10:00:00 7.6 4 Este 22 Nordeste 0 -- -- 99
2019-06-13 09:00:00 7.8 4 Sudeste 34 Noroeste 0 -- -- 99
2019-06-13 08:00:00 6.7 8 Noroeste 19 Nordeste 0 -- -- 98
2019-06-13 07:00:00 6.6 5 Este 27 Nordeste 0 -- -- 99
2019-06-13 06:00:00 7 13 Noroeste 32 Noroeste 0 -- -- 99
2019-06-13 05:00:00 7 9 Norte 30 Nordeste 0 -- -- 99
2019-06-13 04:00:00 7.7 9 Nordeste 40 Nordeste 0 -- -- 99
2019-06-13 03:00:00 6.4 8 Noroeste 26 Oeste 0 -- -- 95
2019-06-13 02:00:00 6.8 4 Sudeste 29 Norte 0 -- -- 88
2019-06-13 01:00:00 9.9 9 Noroeste 29 Noroeste 0 -- -- 46
2019-06-13 00:00:00 9.1 14 Noroeste 39 Noroeste 0 -- -- 60
2019-06-12 23:00:00 8.4 17 Noroeste 38 Noroeste 0 -- -- 76
2019-06-12 22:00:00 7.8 17 Noroeste 37 Norte 0 -- -- 92
2019-06-12 21:00:00 8.4 11 Norte 26 Noroeste 0 -- -- 96
2019-06-12 20:00:00 9.4 10 Norte 26 Nordeste 0 -- -- 92
2019-06-12 19:00:00 13.8 10 Oeste 20 Oeste 0 -- -- 71
2019-06-12 18:00:00 15.3 9 Oeste 21 Oeste 0 -- -- 61
2019-06-12 17:00:00 17.5 4 Sudeste 17 Oeste 0 -- -- 58
2019-06-12 16:00:00 16.5 4 Sur 16 Oeste 0 -- -- 70
2019-06-12 15:00:00 15.9 8 Sudoeste 21 Sudoeste 0 -- -- 48
2019-06-12 14:00:00 15.1 7 Sudoeste 17 Oeste 0 -- -- 81
2019-06-12 13:00:00 12.6 3 Nordeste 23 Noroeste 0 -- -- 99
2019-06-12 12:00:00 10.7 6 Este 30 Nordeste 0.2 -- -- 99
2019-06-12 11:00:00 10.5 5 Este 33 Sudeste 0.4 -- -- 100
2019-06-12 10:00:00 10.5 7 Este 44 Sudeste 0.4 -- -- 100
2019-06-12 09:00:00 10 19 Este 42 Nordeste 0.2 -- -- 100
2019-06-12 08:00:00 8.8 11 Este 44 Este 0.2 -- -- 100
2019-06-12 07:00:00 9.5 13 Este 51 Sudeste 0.4 -- -- 100
2019-06-12 06:00:00 9.3 21 Este 43 Este 0.2 -- -- 100
2019-06-12 05:00:00 9.3 20 Este 46 Este 0.2 -- -- 100
2019-06-12 04:00:00 9.5 14 Este 50 Sudeste 0.2 -- -- 100
2019-06-12 03:00:00 9.5 20 Este 45 Sudeste 0.4 -- -- 100
2019-06-12 02:00:00 9.1 15 Este 45 Sudeste 0 -- -- 100
2019-06-12 01:00:00 9.1 18 Este 44 Este 0 -- -- 100
2019-06-12 00:00:00 8.9 20 Este 48 Sudeste 0.2 -- -- 99
2019-06-11 23:00:00 9 16 Este 46 Sudeste 0.2 -- -- 99
2019-06-11 22:00:00 8.8 18 Este 45 Sudeste 0 -- -- 99
2019-06-11 21:00:00 8.9 24 Este 62 Este 0 -- -- 99
2019-06-11 20:00:00 8.8 21 Este 54 Este 0 -- -- 99
2019-06-11 19:00:00 9.4 21 Este 49 Sudeste 0 -- -- 98
2019-06-11 18:00:00 10 19 Este 40 Este 0 -- -- 99
2019-06-11 17:00:00 10.8 13 Este 37 Nordeste 0 -- -- 99
2019-06-11 16:00:00 10.8 13 Este 39 Sudeste 0 -- -- 99
2019-06-11 15:00:00 10.7 18 Este 49 Sudeste 0.2 -- -- 99
2019-06-11 14:00:00 10.8 23 Sudeste 46 Este 0 -- -- 98
2019-06-11 13:00:00 10.7 13 Este 37 Nordeste 0 -- -- 99
2019-06-11 12:00:00 10.2 12 Este 43 Sudeste 0 -- -- 99
2019-06-11 11:00:00 9.4 15 Este 53 Este 0.4 -- -- 99
2019-06-11 10:00:00 8.4 26 Este 61 Este 0.6 -- -- 99
2019-06-11 09:00:00 8 16 Este 48 Sudeste 0.2 -- -- 98
2019-06-11 08:00:00 8.5 22 Este 54 Este 0 -- -- 98
2019-06-11 07:00:00 7.9 21 Este 50 Este 0 -- -- 97
2019-06-11 06:00:00 7.7 21 Este 53 Sudeste 0 -- -- 93
2019-06-11 05:00:00 8.6 17 Este 42 Sudeste 0 -- -- 84
2019-06-11 04:00:00 8.8 15 Este 44 Sudeste 0 -- -- 78
2019-06-11 03:00:00 9.4 14 Este 41 Este 0 -- -- 67
2019-06-11 02:00:00 10 16 Este 45 Sudeste 0 -- -- 67
2019-06-11 01:00:00 10.5 20 Este 51 Sudeste 0 -- -- 45
2019-06-11 00:00:00 10.5 22 Este 51 Este 0 -- -- 50
2019-06-10 23:00:00 10.4 12 Este 41 Nordeste 0 -- -- 45
2019-06-10 22:00:00 10.3 13 Este 35 Este 0 -- -- 62
2019-06-10 21:00:00 9.1 18 Este 43 Nordeste 0 -- -- 79
2019-06-10 20:00:00 9 13 Este 36 Este 0 -- -- 95
2019-06-10 19:00:00 10 5 Este 34 Nordeste 0 -- -- 88
2019-06-10 18:00:00 10.6 5 Este 28 Nordeste 0 -- -- 84
2019-06-10 17:00:00 11.6 5 Este 30 Nordeste 0 -- -- 82
2019-06-10 16:00:00 13.3 5 Este 28 Sudeste 0 -- -- 74
2019-06-10 15:00:00 14.7 9 Este 30 Sudeste 0 -- -- 68
2019-06-10 14:00:00 15.3 8 Este 22 Sudeste 0 -- -- 65
2019-06-10 13:00:00 13.4 5 Este 21 Nordeste 0 -- -- 72
2019-06-10 12:00:00 11.8 5 Este 27 Nordeste 0 -- -- 77
2019-06-10 11:00:00 11.6 5 Este 31 Nordeste 0 -- -- 77
2019-06-10 10:00:00 11 9 Este 40 Nordeste 0 -- -- 73
2019-06-10 09:00:00 11.1 12 Este 41 Nordeste 0 -- -- 59
2019-06-10 08:00:00 8.3 13 Este 34 Nordeste 0 -- -- 88
2019-06-10 07:00:00 9.2 16 Este 38 Nordeste 0 -- -- 61
2019-06-10 06:00:00 10.2 14 Este 41 Nordeste 0 -- -- 55
2019-06-10 05:00:00 10.9 31 Nordeste 41 Nordeste 0 -- -- 51
2019-06-10 04:00:00 11.6 24 Este 39 Nordeste 0 -- -- 45
2019-06-10 03:00:00 11.3 7 Este 35 Nordeste 0 -- -- 50
2019-06-10 02:00:00 11.7 13 Este 41 Este 0 -- -- 46
2019-06-10 01:00:00 12.4 15 Este 42 Nordeste 0 -- -- 44
2019-06-10 00:00:00 11.1 24 Este 46 Nordeste 0 -- -- 57
2019-06-09 23:00:00 12.7 19 Este 46 Nordeste 0 -- -- 45
2019-06-09 22:00:00 12.9 32 Nordeste 45 Nordeste 0 -- -- 41
2019-06-09 21:00:00 12.6 29 Nordeste 46 Nordeste 0 -- -- 41
2019-06-09 20:00:00 12.6 22 Este 40 Nordeste 0 -- -- 44
2019-06-09 19:00:00 12.8 5 Este 32 Este 0 -- -- 64
2019-06-09 18:00:00 14.5 9 Este 28 Nordeste 0 -- -- 59
2019-06-09 17:00:00 15.5 5 Este 24 Este 0 -- -- 41
2019-06-09 16:00:00 15.7 6 Este 30 Este 0 -- -- 34
2019-06-09 15:00:00 14.9 5 Este 21 Este 0 -- -- 58
2019-06-09 14:00:00 14.8 4 Este 21 Nordeste 0 -- -- 58
2019-06-09 13:00:00 12.5 6 Este 23 Nordeste 0 -- -- 76
2019-06-09 12:00:00 11.2 6 Este 24 Nordeste 0 -- -- 85
2019-06-09 11:00:00 9.9 7 Este 26 Este 0 -- -- 99
2019-06-09 10:00:00 7.8 10 Este 28 Nordeste 0 -- -- 100
2019-06-09 09:00:00 7 11 Este 28 Este 0.2 -- -- 100
2019-06-09 08:00:00 6.7 17 Nordeste 32 Este 0 -- -- 100
2019-06-09 07:00:00 6.1 10 Nordeste 27 Nordeste 0.2 -- -- 100
2019-06-09 06:00:00 6.8 14 Este 31 Nordeste 0 -- -- 100
2019-06-09 05:00:00 6.3 10 Este 26 Nordeste 0.2 -- -- 100
2019-06-09 04:00:00 6.1 10 Nordeste 26 Nordeste 0 -- -- 100
2019-06-09 03:00:00 6.2 8 Este 27 Nordeste 0 -- -- 100
2019-06-09 02:00:00 6.6 11 Este 27 Nordeste 0 -- -- 100
2019-06-09 01:00:00 6.6 9 Este 34 Nordeste 0 -- -- 99
2019-06-09 00:00:00 6.7 8 Este 30 Este 0 -- -- 99
2019-06-08 23:00:00 6.9 13 Nordeste 22 Nordeste 0 -- -- 99
2019-06-08 22:00:00 8 5 Este 22 Este 0 -- -- 99
2019-06-08 21:00:00 8.4 9 Este 27 Este 0 -- -- 98
2019-06-08 20:00:00 9.3 6 Este 17 Nordeste 0 -- -- 95
2019-06-08 19:00:00 13.6 2 Este 15 Oeste 0 -- -- 75
2019-06-08 18:00:00 17 6 Sudeste 14 Oeste 0 -- -- 67
2019-06-08 17:00:00 14.9 4 Sudeste 15 Oeste 0 -- -- 89
2019-06-08 16:00:00 14 4 Sudeste 9 Sudeste 0 -- -- 95
2019-06-08 15:00:00 13.3 4 Sudeste 12 Sudeste 0 -- -- 98
2019-06-08 14:00:00 11 7 Este 22 Nordeste 0 -- -- 100
2019-06-08 13:00:00 10.6 4 Este 14 Este 0 -- -- 99
2019-06-08 12:00:00 10.5 4 Este 20 Nordeste 0 -- -- 100
2019-06-08 11:00:00 9.8 6 Este 24 Nordeste 0 -- -- 100
2019-06-08 10:00:00 9.9 4 Nordeste 31 Nordeste 0.2 -- -- 100
2019-06-08 09:00:00 9.3 12 Este 30 Nordeste 0.2 -- -- 100
2019-06-08 08:00:00 8.8 15 Nordeste 31 Este 0.2 -- -- 100
2019-06-08 07:00:00 9.4 3 Nordeste 27 Nordeste 0.2 -- -- 99
2019-06-08 06:00:00 9.1 5 Este 27 Nordeste 0.2 -- -- 99
2019-06-08 05:00:00 9.8 15 Este 30 Nordeste 0.4 -- -- 99
2019-06-08 04:00:00 9.9 8 Este 26 Este 0 -- -- 99
2019-06-08 03:00:00 9.9 5 Este 28 Nordeste 0.2 -- -- 99
2019-06-08 02:00:00 9.8 14 Nordeste 31 Nordeste 0 -- -- 99
2019-06-08 01:00:00 8.7 7 Este 19 Nordeste 0 -- -- 99
2019-06-08 00:00:00 9.4 8 Este 22 Nordeste 0 -- -- 99
2019-06-07 23:00:00 9.4 9 Este 26 Nordeste 0 -- -- 98
2019-06-07 22:00:00 9 17 Nordeste 25 Nordeste 0 -- -- 96
2019-06-07 21:00:00 9.8 11 Este 23 Este 0 -- -- 92
2019-06-07 20:00:00 10.4 3 Este 14 Nordeste 0 -- -- 91
2019-06-07 19:00:00 11.6 4 Este 15 Nordeste 0 -- -- 86
2019-06-07 18:00:00 12.2 5 Este 18 Este 0 -- -- 88
2019-06-07 17:00:00 12.6 5 Este 21 Nordeste 0 -- -- 85
2019-06-07 16:00:00 13.3 6 Este 22 Sudeste 0 -- -- 83
2019-06-07 15:00:00 13.7 7 Este 23 Este 0 -- -- 77
2019-06-07 14:00:00 12.7 6 Este 27 Este 0 -- -- 78
2019-06-07 13:00:00 11.8 7 Este 31 Sudeste 0 -- -- 82
2019-06-07 12:00:00 9.3 12 Este 33 Este 0 -- -- 97
2019-06-07 11:00:00 10 6 Este 32 Este 0 -- -- 94
2019-06-07 10:00:00 9.4 14 Este 35 Nordeste 0 -- -- 92
2019-06-07 09:00:00 10 18 Este 50 Este 0 -- -- 83
2019-06-07 08:00:00 9.6 17 Este 40 Nordeste 0 -- -- 78
2019-06-07 07:00:00 9.2 19 Nordeste 36 Nordeste 0 -- -- 76
2019-06-07 06:00:00 8.4 25 Nordeste 42 Nordeste 0 -- -- 82
2019-06-07 05:00:00 8.4 12 Este 40 Nordeste 0 -- -- 80
2019-06-07 04:00:00 7.4 19 Nordeste 38 Nordeste 0 -- -- 82
2019-06-07 03:00:00 5.9 24 Nordeste 39 Nordeste 0 -- -- 93
2019-06-07 02:00:00 7.1 15 Este 49 Este 0 -- -- 99
2019-06-07 01:00:00 6.6 19 Este 44 Nordeste 0 -- -- 98
2019-06-07 00:00:00 6.2 25 Nordeste 50 Nordeste 0 -- -- 96
2019-06-06 23:00:00 6.1 25 Nordeste 45 Nordeste 0 -- -- 99
2019-06-06 22:00:00 6.5 21 Este 44 Nordeste 0 -- -- 98
2019-06-06 21:00:00 6.5 23 Este 43 Nordeste 0 -- -- 96
2019-06-06 20:00:00 7.9 14 Nordeste 24 Nordeste 0 -- -- 91
2019-06-06 19:00:00 10.7 3 Nordeste 13 Nordeste 0 -- -- 76
2019-06-06 18:00:00 11.6 4 Este 15 Sudeste 0 -- -- 80
2019-06-06 17:00:00 10.6 5 Este 18 Este 0 -- -- 89
2019-06-06 16:00:00 10.8 6 Este 25 Sudeste 0 -- -- 88
2019-06-06 15:00:00 11.4 7 Este 22 Nordeste 0 -- -- 86
2019-06-06 14:00:00 9.8 10 Este 27 Nordeste 0 -- -- 99
2019-06-06 13:00:00 8.5 9 Este 30 Sudeste 0 -- -- 100
2019-06-06 12:00:00 7.1 8 Este 31 Este 0 -- -- 100
2019-06-06 11:00:00 8 9 Este 31 Sudeste 0 -- -- 100
2019-06-06 10:00:00 7.3 9 Este 48 Nordeste 0.2 -- -- 100
2019-06-06 09:00:00 6.7 18 Nordeste 41 Este 0.4 -- -- 100
2019-06-06 08:00:00 6.7 12 Este 44 Nordeste 0.4 -- -- 100
2019-06-06 07:00:00 7 14 Este 37 Sudeste 0.2 -- -- 100
2019-06-06 06:00:00 6.7 18 Nordeste 40 Nordeste 0.2 -- -- 99
2019-06-06 05:00:00 6.8 14 Este 37 Nordeste 0.2 -- -- 99
2019-06-06 04:00:00 7.5 11 Este 37 Nordeste 0.2 -- -- 99
2019-06-06 03:00:00 7.8 9 Este 33 Este 0.2 -- -- 99
2019-06-06 02:00:00 7.9 11 Este 34 Sudeste 0.2 -- -- 99
2019-06-06 01:00:00 8.7 18 Nordeste 39 Este 0.2 -- -- 99
2019-06-06 00:00:00 8.6 12 Este 43 Nordeste 0.4 -- -- 99
2019-06-05 23:00:00 8.8 22 Nordeste 42 Sudeste 0.4 -- -- 99
2019-06-05 22:00:00 9.7 14 Este 33 Nordeste 0 -- -- 99
2019-06-05 21:00:00 9 10 Este 35 Este 0 -- -- 98
2019-06-05 20:00:00 9.4 13 Este 35 Sudeste 0 -- -- 98
2019-06-05 19:00:00 9.6 12 Este 32 Nordeste 0 -- -- 96
2019-06-05 18:00:00 11 13 Nordeste 27 Nordeste 0 -- -- 91
2019-06-05 17:00:00 13 9 Este 27 Nordeste 0 -- -- 82
2019-06-05 16:00:00 13.2 9 Este 26 Nordeste 0 -- -- 80
2019-06-05 15:00:00 13.4 6 Este 19 Este 0 -- -- 85
2019-06-05 14:00:00 13.9 5 Este 21 Este 0 -- -- 81
2019-06-05 13:00:00 12.3 8 Este 27 Nordeste 0 -- -- 98
2019-06-05 12:00:00 10.7 9 Este 32 Nordeste 0 -- -- 98
2019-06-05 11:00:00 10.5 8 Este 33 Este 0 -- -- 99
2019-06-05 10:00:00 10.1 11 Este 33 Este 0.2 -- -- 98
2019-06-05 09:00:00 9.7 12 Este 37 Sudeste 0.2 -- -- 98
2019-06-05 08:00:00 9.6 18 Este 38 Nordeste 0.2 -- -- 98
2019-06-05 07:00:00 9.5 16 Este 40 Nordeste 0 -- -- 98
2019-06-05 06:00:00 9.4 20 Este 38 Este 0 -- -- 97
2019-06-05 05:00:00 9.9 10 Este 33 Nordeste 0 -- -- 95
2019-06-05 04:00:00 10.6 14 Nordeste 31 Norte 0 -- -- 87
2019-06-05 03:00:00 13.3 9 Nordeste 22 Nordeste 0 -- -- 60
2019-06-05 02:00:00 14.5 11 Norte 25 Norte 0 -- -- 49
2019-06-05 01:00:00 14.8 10 Norte 24 Norte 0 -- -- 55
2019-06-05 00:00:00 14.5 9 Nordeste 21 Norte 0 -- -- 33
2019-06-04 23:00:00 15 7 Norte 22 Norte 0 -- -- 29
2019-06-04 22:00:00 14.9 8 Norte 21 Nordeste 0 -- -- 33
2019-06-04 21:00:00 15.2 4 Norte 13 Nordeste 0 -- -- 34
2019-06-04 20:00:00 18.6 5 Nordeste 17 Noroeste 0 -- -- 25
2019-06-04 19:00:00 20.5 4 Este 14 Nordeste 0 -- -- 24
2019-06-04 18:00:00 20.2 3 Este 11 Este 0 -- -- 43
2019-06-04 17:00:00 22.5 4 Este 15 Este 0 -- -- 42
2019-06-04 16:00:00 21.1 6 Este 23 Nordeste 0 -- -- 39
2019-06-04 15:00:00 20.8 7 Este 18 Sudeste 0 -- -- 38
2019-06-04 14:00:00 21.1 6 Este 20 Sudeste 0 -- -- 33
2019-06-04 13:00:00 21.6 5 Este 18 Sudeste 0 -- -- 29
2019-06-04 12:00:00 21.5 5 Este 18 Este 0 -- -- 29
2019-06-04 11:00:00 20.9 5 Este 20 Este 0 -- -- 27
2019-06-04 10:00:00 20 6 Este 24 Este 0 -- -- 26
2019-06-04 09:00:00 19.1 6 Este 26 Nordeste 0 -- -- 25
2019-06-04 08:00:00 18.7 8 Este 24 Nordeste 0 -- -- 14
2019-06-04 07:00:00 18.1 12 Nordeste 24 Nordeste 0 -- -- 16
2019-06-04 06:00:00 18 6 Este 25 Nordeste 0 -- -- 16
2019-06-04 05:00:00 18.1 21 Nordeste 29 Nordeste 0 -- -- 17
2019-06-04 04:00:00 18 20 Nordeste 32 Nordeste 0 -- -- 18
2019-06-04 03:00:00 17.5 24 Nordeste 36 Nordeste 0 -- -- 23
2019-06-04 02:00:00 17.3 27 Nordeste 37 Nordeste 0 -- -- 28
2019-06-04 01:00:00 17.5 27 Nordeste 39 Nordeste 0 -- -- 27
2019-06-04 00:00:00 17.5 26 Nordeste 39 Nordeste 0 -- -- 27
2019-06-03 23:00:00 17.8 28 Nordeste 37 Nordeste 0 -- -- 25
2019-06-03 22:00:00 18.3 18 Este 36 Nordeste 0 -- -- 20
2019-06-03 21:00:00 18.1 9 Este 33 Nordeste 0 -- -- 18
2019-06-03 20:00:00 19 18 Nordeste 37 Nordeste 0 -- -- 22
2019-06-03 19:00:00 20.4 10 Este 32 Sudeste 0 -- -- 24
2019-06-03 18:00:00 21.2 10 Este 33 Sudeste 0 -- -- 21
2019-06-03 17:00:00 22.2 10 Este 36 Este 0 -- -- 20
2019-06-03 16:00:00 23.8 12 Este 34 Este 0 -- -- 21
2019-06-03 15:00:00 24.3 13 Este 33 Este 0 -- -- 23
2019-06-03 14:00:00 24 7 Este 37 Sudeste 0 -- -- 22
2019-06-03 13:00:00 24.2 12 Este 33 Este 0 -- -- 13
2019-06-03 12:00:00 24.1 8 Este 29 Nordeste 0 -- -- 14
2019-06-03 11:00:00 23.6 8 Este 35 Nordeste 0 -- -- 16
2019-06-03 10:00:00 22.7 6 Este 39 Nordeste 0 -- -- 15
2019-06-03 09:00:00 21.6 14 Este 40 Nordeste 0 -- -- 14
2019-06-03 08:00:00 20.7 21 Este 49 Nordeste 0 -- -- 16
2019-06-03 07:00:00 20.3 28 Este 48 Este 0 -- -- 15
2019-06-03 06:00:00 20.3 24 Este 50 Este 0 -- -- 15
2019-06-03 05:00:00 20.4 22 Este 49 Este 0 -- -- 11
2019-06-03 04:00:00 19.1 22 Este 50 Este 0 -- -- 15
2019-06-03 03:00:00 18.7 28 Este 51 Este 0 -- -- 17
2019-06-03 02:00:00 17.9 28 Este 46 Este 0 -- -- 26
2019-06-03 01:00:00 18.2 19 Este 51 Nordeste 0 -- -- 23
2019-06-03 00:00:00 19.1 21 Este 46 Nordeste 0 -- -- 19
2019-06-02 23:00:00 17.9 15 Este 46 Nordeste 0 -- -- 29
2019-06-02 22:00:00 19.5 10 Este 38 Este 0 -- -- 23
2019-06-02 21:00:00 19.7 22 Este 40 Nordeste 0 -- -- 29
2019-06-02 20:00:00 20.3 11 Este 29 Este 0 -- -- 37
2019-06-02 19:00:00 22.2 5 Este 28 Nordeste 0 -- -- 35
2019-06-02 18:00:00 23.3 4 Este 26 Nordeste 0 -- -- 31
2019-06-02 17:00:00 23.9 7 Este 22 Este 0 -- -- 34
2019-06-02 16:00:00 24.6 6 Este 24 Nordeste 0 -- -- 31
2019-06-02 15:00:00 24.7 10 Este 29 Nordeste 0 -- -- 31
2019-06-02 14:00:00 24.7 9 Este 39 Este 0 -- -- 29
2019-06-02 13:00:00 24.5 8 Este 39 Este 0 -- -- 29
2019-06-02 12:00:00 24 14 Este 39 Nordeste 0 -- -- 27
2019-06-02 11:00:00 23.6 13 Este 41 Nordeste 0 -- -- 25
2019-06-02 10:00:00 22.9 9 Este 39 Este 0 -- -- 24
2019-06-02 09:00:00 22.1 9 Este 33 Nordeste 0 -- -- 26
2019-06-02 08:00:00 21.1 12 Este 35 Nordeste 0 -- -- 29
2019-06-02 07:00:00 20.7 22 Este 35 Nordeste 0 -- -- 27
2019-06-02 06:00:00 20.4 21 Este 36 Este 0 -- -- 19
2019-06-02 05:00:00 20.1 18 Este 37 Nordeste 0 -- -- 29
2019-06-02 04:00:00 20 22 Este 33 Este 0 -- -- 27
2019-06-02 03:00:00 18.8 21 Este 32 Nordeste 0 -- -- 30
2019-06-02 02:00:00 18.6 22 Este 34 Nordeste 0 -- -- 31
2019-06-02 01:00:00 17.5 23 Nordeste 31 Nordeste 0 -- -- 37
2019-06-02 00:00:00 21.5 17 Nordeste 28 Nordeste 0 -- -- 16
2019-06-01 23:00:00 22 13 Nordeste 27 Nordeste 0 -- -- 15
2019-06-01 22:00:00 21.8 10 Este 20 Nordeste 0 -- -- 15
2019-06-01 21:00:00 21.9 4 Este 10 Nordeste 0 -- -- 20
2019-06-01 20:00:00 23.5 4 Este 9 Nordeste 0 -- -- 29
2019-06-01 19:00:00 25 3 Este 8 Nordeste 0 -- -- 35
2019-06-01 18:00:00 26.9 3 Este 10 Sudeste 0 -- -- 39
2019-06-01 17:00:00 26.8 4 Este 10 Sudeste 0 -- -- 39
2019-06-01 16:00:00 27.2 3 Este 13 Sudeste 0 -- -- 36
2019-06-01 15:00:00 26.6 5 Sudeste 14 Oeste 0 -- -- 37
2019-06-01 14:00:00 24.5 8 Oeste 14 Oeste 0 -- -- 34
2019-06-01 13:00:00 24.7 6 Sudoeste 13 Oeste 0 -- -- 32
2019-06-01 12:00:00 25.2 3 Oeste 14 Sudeste 0 -- -- 30
2019-06-01 11:00:00 24.6 5 Este 16 Sudeste 0 -- -- 26
2019-06-01 10:00:00 23.9 5 Este 15 Este 0 -- -- 26
2019-06-01 09:00:00 22.9 5 Este 22 Nordeste 0 -- -- 26
2019-06-01 08:00:00 21.5 10 Este 32 Este 0 -- -- 27
2019-06-01 07:00:00 20.4 14 Este 36 Nordeste 0 -- -- 29
2019-06-01 06:00:00 20.1 13 Este 38 Este 0 -- -- 30
2019-06-01 05:00:00 19.7 20 Nordeste 37 Nordeste 0 -- -- 31
2019-06-01 04:00:00 20.2 17 Este 26 Este 0 -- -- 30
2019-06-01 03:00:00 19.9 5 Este 20 Nordeste 0 -- -- 28
2019-06-01 02:00:00 19.9 10 Este 30 Nordeste 0 -- -- 12
2019-06-01 01:00:00 20.2 17 Este 30 Este 0 -- -- 19
2019-06-01 00:00:00 20.1 16 Nordeste 24 Este 0 -- -- 23
2019-05-31 23:00:00 20.1 16 Nordeste 24 Nordeste 0 -- -- 23
2019-05-31 22:00:00 20.6 5 Este 12 Nordeste 0 -- -- 26
2019-05-31 21:00:00 21.4 4 Nordeste 9 Nordeste 0 -- -- 26
2019-05-31 20:00:00 26.2 4 Nordeste 8 Nordeste 0 -- -- 19
2019-05-31 19:00:00 24.4 5 Nordeste 10 Nordeste 0 -- -- 25
2019-05-31 18:00:00 24 3 Este 12 Sudeste 0 -- -- 40
2019-05-31 17:00:00 24.6 4 Este 14 Este 0 -- -- 41
2019-05-31 16:00:00 25.7 5 Sudoeste 12 Sudeste 0 -- -- 35
2019-05-31 15:00:00 24.7 3 Este 14 Este 0 -- -- 29
2019-05-31 14:00:00 25.5 4 Nordeste 12 Este 0 -- -- 29
2019-05-31 13:00:00 23.8 6 Este 16 Este 0 -- -- 32
2019-05-31 12:00:00 24 5 Este 24 Nordeste 0 -- -- 23
2019-05-31 11:00:00 23.6 6 Este 22 Este 0 -- -- 20
2019-05-31 10:00:00 23.1 5 Este 18 Este 0 -- -- 15
2019-05-31 09:00:00 21.6 4 Nordeste 22 Nordeste 0 -- -- 15
2019-05-31 08:00:00 20.7 15 Nordeste 25 Este 0 -- -- 15
2019-05-31 07:00:00 19.3 15 Nordeste 22 Este 0 -- -- 15
2019-05-31 06:00:00 19.5 16 Nordeste 24 Este 0 -- -- 16
2019-05-31 05:00:00 18.8 16 Nordeste 29 Nordeste 0 -- -- 15
2019-05-31 04:00:00 18.7 14 Este 23 Nordeste 0 -- -- 15
2019-05-31 03:00:00 18.6 15 Nordeste 22 Este 0 -- -- 14
2019-05-31 02:00:00 18.5 12 Nordeste 18 Nordeste 0 -- -- 16
2019-05-31 01:00:00 18.4 10 Nordeste 14 Nordeste 0 -- -- 17
2019-05-31 00:00:00 18.3 5 Nordeste 14 Nordeste 0 -- -- 19
2019-05-30 23:00:00 18.3 14 Nordeste 17 Nordeste 0 -- -- 17
2019-05-30 22:00:00 18.1 7 Nordeste 10 Nordeste 0 -- -- 23
2019-05-30 21:00:00 18.6 5 Nordeste 8 Este 0 -- -- 27
2019-05-30 20:00:00 20.2 4 Este 7 Nordeste 0 -- -- 33
2019-05-30 19:00:00 22.1 2 Este 8 Nordeste 0 -- -- 34
2019-05-30 18:00:00 24.7 3 Este 9 Sudeste 0 -- -- 35
2019-05-30 17:00:00 25.6 2 Este 12 Oeste 0 -- -- 33
2019-05-30 16:00:00 24 5 Sudeste 13 Sudeste 0 -- -- 36
2019-05-30 15:00:00 23 6 Oeste 15 Oeste 0 -- -- 30
2019-05-30 14:00:00 24.2 5 Sudoeste 13 Sudoeste 0 -- -- 28
2019-05-30 13:00:00 24.6 5 Este 15 Sudeste 0 -- -- 21
2019-05-30 12:00:00 24.1 5 Sudeste 14 Sudeste 0 -- -- 20
2019-05-30 11:00:00 23 4 Este 13 Sudeste 0 -- -- 17
2019-05-30 10:00:00 22.2 4 Este 16 Este 0 -- -- 18
2019-05-30 09:00:00 20.1 6 Este 21 Este 0 -- -- 21
2019-05-30 08:00:00 18.7 15 Nordeste 21 Este 0 -- -- 20
2019-05-30 07:00:00 17.5 14 Nordeste 22 Nordeste 0 -- -- 23
2019-05-30 06:00:00 17.4 16 Nordeste 23 Este 0 -- -- 22
2019-05-30 05:00:00 17.3 16 Este 28 Nordeste 0 -- -- 24
2019-05-30 04:00:00 17.6 19 Nordeste 28 Nordeste 0 -- -- 24
2019-05-30 03:00:00 17.3 20 Nordeste 27 Nordeste 0 -- -- 26
2019-05-30 02:00:00 16.9 18 Nordeste 26 Nordeste 0 -- -- 25
2019-05-30 01:00:00 16.6 19 Nordeste 24 Nordeste 0 -- -- 18
2019-05-30 00:00:00 16.5 18 Nordeste 24 Nordeste 0 -- -- 19
2019-05-29 23:00:00 16.4 9 Este 17 Nordeste 0 -- -- 20
2019-05-29 22:00:00 15.9 9 Nordeste 14 Este 0 -- -- 32
2019-05-29 21:00:00 16.6 5 Este 10 Este 0 -- -- 35
2019-05-29 20:00:00 18.3 6 Nordeste 10 Nordeste 0 -- -- 38
2019-05-29 19:00:00 20 4 Este 8 Nordeste 0 -- -- 37
2019-05-29 18:00:00 23.3 4 Este 9 Este 0 -- -- 39
2019-05-29 17:00:00 22.5 4 Este 13 Sudeste 0 -- -- 47
2019-05-29 16:00:00 21.4 5 Este 14 Este 0 -- -- 47
2019-05-29 15:00:00 20.9 6 Este 18 Sudeste 0 -- -- 41
2019-05-29 14:00:00 19.8 9 Este 19 Sudeste 0 -- -- 36
2019-05-29 13:00:00 20.6 6 Este 18 Sudeste 0 -- -- 32
2019-05-29 12:00:00 20.5 6 Este 18 Este 0 -- -- 30
2019-05-29 11:00:00 19.6 6 Este 18 Sur 0 -- -- 25
2019-05-29 10:00:00 18.9 4 Este 18 Este 0 -- -- 26
2019-05-29 09:00:00 17.3 7 Este 26 Nordeste 0 -- -- 26
2019-05-29 08:00:00 16.1 12 Este 24 Este 0 -- -- 26
2019-05-29 07:00:00 14.9 8 Este 22 Nordeste 0 -- -- 28
2019-05-29 06:00:00 15.2 18 Nordeste 25 Nordeste 0 -- -- 27
2019-05-29 05:00:00 15.1 21 Nordeste 31 Nordeste 0 -- -- 27
2019-05-29 04:00:00 14.7 16 Nordeste 24 Nordeste 0 -- -- 34
2019-05-29 03:00:00 14.7 17 Nordeste 28 Nordeste 0 -- -- 37
2019-05-29 02:00:00 14.9 21 Nordeste 27 Nordeste 0 -- -- 36
2019-05-29 01:00:00 14.7 15 Nordeste 24 Nordeste 0 -- -- 38
2019-05-29 00:00:00 15.1 18 Nordeste 26 Nordeste 0 -- -- 37
2019-05-28 23:00:00 15.2 21 Nordeste 26 Nordeste 0 -- -- 35
2019-05-28 22:00:00 15.5 22 Nordeste 26 Nordeste 0 -- -- 35
2019-05-28 21:00:00 15.9 13 Nordeste 22 Nordeste 0 -- -- 33
2019-05-28 20:00:00 16.8 12 Nordeste 18 Nordeste 0 -- -- 34
2019-05-28 19:00:00 18.1 4 Este 16 Este 0 -- -- 44
2019-05-28 18:00:00 19.3 7 Este 15 Sudeste 0 -- -- 45
2019-05-28 17:00:00 19.4 6 Este 19 Este 0 -- -- 37
2019-05-28 16:00:00 19.9 6 Este 20 Sudeste 0 -- -- 40
2019-05-28 15:00:00 20.3 6 Este 21 Este 0 -- -- 34
2019-05-28 14:00:00 20.4 6 Este 24 Este 0 -- -- 28
2019-05-28 13:00:00 19.6 13 Este 30 Sudeste 0 -- -- 35
2019-05-28 12:00:00 19 12 Este 33 Este 0 -- -- 38
2019-05-28 11:00:00 17.6 6 Este 29 Nordeste 0 -- -- 39
2019-05-28 10:00:00 16.7 5 Este 20 Este 0 -- -- 41
2019-05-28 09:00:00 15.9 5 Este 39 Nordeste 0 -- -- 43
2019-05-28 08:00:00 14.9 19 Este 41 Nordeste 0 -- -- 43
2019-05-28 07:00:00 14.5 22 Este 44 Este 0 -- -- 42
2019-05-28 06:00:00 14.5 19 Este 39 Nordeste 0 -- -- 42
2019-05-28 05:00:00 14.6 11 Este 38 Este 0 -- -- 44
2019-05-28 04:00:00 14.1 18 Este 37 Este 0 -- -- 48
2019-05-28 03:00:00 14.4 19 Este 38 Nordeste 0 -- -- 48
2019-05-28 02:00:00 14.4 20 Este 40 Este 0 -- -- 45
2019-05-28 01:00:00 14.5 22 Este 43 Nordeste 0 -- -- 46
2019-05-28 00:00:00 14.6 15 Este 41 Nordeste 0 -- -- 45
2019-05-27 23:00:00 14.5 14 Este 38 Nordeste 0 -- -- 45
2019-05-27 22:00:00 14.3 9 Este 39 Nordeste 0 -- -- 45
2019-05-27 21:00:00 13.9 8 Este 37 Nordeste 0 -- -- 48
2019-05-27 20:00:00 14.5 14 Este 28 Este 0 -- -- 43
2019-05-27 19:00:00 15.7 7 Este 26 Este 0 -- -- 38
2019-05-27 18:00:00 16.4 7 Este 24 Este 0 -- -- 45
2019-05-27 17:00:00 17.2 5 Este 26 Este 0 -- -- 41
2019-05-27 16:00:00 17.1 5 Este 24 Este 0 -- -- 40
2019-05-27 15:00:00 18 5 Este 31 Sudeste 0 -- -- 35
2019-05-27 14:00:00 17.7 6 Este 27 Sudeste 0 -- -- 34
2019-05-27 13:00:00 17.7 6 Este 30 Este 0 -- -- 32
2019-05-27 12:00:00 17 6 Este 27 Este 0 -- -- 32
2019-05-27 11:00:00 15.9 6 Este 38 Sudeste 0 -- -- 36
2019-05-27 10:00:00 15.2 9 Este 49 Este 0 -- -- 42
2019-05-27 09:00:00 13.9 9 Este 45 Este 0 -- -- 45
2019-05-27 08:00:00 12.6 22 Este 45 Nordeste 0 -- -- 49
2019-05-27 07:00:00 11.8 23 Este 42 Nordeste 0 -- -- 53
2019-05-27 06:00:00 11.6 21 Este 52 Nordeste 0 -- -- 53
2019-05-27 05:00:00 12.2 32 Este 49 Nordeste 0 -- -- 49
2019-05-27 04:00:00 12.8 27 Este 45 Nordeste 0 -- -- 49
2019-05-27 03:00:00 12.4 19 Este 47 Este 0 -- -- 65
2019-05-27 02:00:00 12.5 6 Este 44 Nordeste 0 -- -- 55
2019-05-27 01:00:00 12.2 27 Este 57 Nordeste 0 -- -- 52
2019-05-27 00:00:00 12.1 21 Este 47 Nordeste 0 -- -- 55
2019-05-26 23:00:00 12.6 28 Nordeste 39 Nordeste 0 -- -- 48
2019-05-26 22:00:00 12.9 5 Este 37 Nordeste 0 -- -- 47
2019-05-26 21:00:00 13.7 27 Nordeste 36 Nordeste 0 -- -- 46
2019-05-26 20:00:00 13.8 3 Este 28 Nordeste 0 -- -- 57
2019-05-26 19:00:00 15.8 3 Nordeste 21 Nordeste 0 -- -- 45
2019-05-26 18:00:00 17.1 4 Este 17 Sudeste 0 -- -- 44
2019-05-26 17:00:00 18.1 5 Este 21 Sudeste 0 -- -- 44
2019-05-26 16:00:00 19 6 Este 22 Sudeste 0 -- -- 42
2019-05-26 15:00:00 18.4 8 Este 26 Sudeste 0 -- -- 46
2019-05-26 14:00:00 17.9 5 Este 19 Sudeste 0 -- -- 36
2019-05-26 13:00:00 17.6 6 Este 22 Este 0 -- -- 48
2019-05-26 12:00:00 17 5 Este 21 Sudeste 0 -- -- 41
2019-05-26 11:00:00 16.5 5 Este 28 Nordeste 0 -- -- 38
2019-05-26 10:00:00 15.8 10 Este 31 Nordeste 0 -- -- 38
2019-05-26 09:00:00 14.1 6 Este 35 Nordeste 0 -- -- 41
2019-05-26 08:00:00 13 7 Este 37 Nordeste 0 -- -- 42
2019-05-26 07:00:00 11.6 26 Este 38 Nordeste 0 -- -- 51
2019-05-26 06:00:00 11.6 23 Nordeste 37 Nordeste 0 -- -- 52
2019-05-26 05:00:00 11.5 29 Nordeste 40 Este 0 -- -- 40
2019-05-26 04:00:00 12.1 21 Nordeste 39 Nordeste 0 -- -- 25
2019-05-26 03:00:00 14.3 18 Nordeste 39 Nordeste 0 -- -- 11
2019-05-26 02:00:00 14.4 17 Este 37 Nordeste 0 -- -- 12
2019-05-26 01:00:00 15.2 11 Este 31 Este 0 -- -- 9
2019-05-26 00:00:00 14.9 9 Este 27 Nordeste 0 -- -- 24